sensor_id;sensor_type;location;lat;lon;timestamp;P1;durP1;ratioP1;P2;durP2;ratioP2
28766;SDS011;15921;52.034;20.650;2022-11-04T00:01:58;29.55;;;12.45;;
28766;SDS011;15921;52.034;20.650;2022-11-04T00:04:25;30.63;;;12.23;;
28766;SDS011;15921;52.034;20.650;2022-11-04T00:06:51;32.38;;;12.68;;
28766;SDS011;15921;52.034;20.650;2022-11-04T00:09:19;32.25;;;12.68;;
28766;SDS011;15921;52.034;20.650;2022-11-04T00:11:47;34.72;;;13.90;;
28766;SDS011;15921;52.034;20.650;2022-11-04T00:14:32;32.15;;;12.98;;
28766;SDS011;15921;52.034;20.650;2022-11-04T00:16:59;31.20;;;13.05;;
28766;SDS011;15921;52.034;20.650;2022-11-04T00:19:44;30.30;;;13.10;;
28766;SDS011;15921;52.034;20.650;2022-11-04T00:22:29;32.92;;;12.80;;
28766;SDS011;15921;52.034;20.650;2022-11-04T00:25:13;31.17;;;12.77;;
28766;SDS011;15921;52.034;20.650;2022-11-04T00:28:05;31.20;;;12.60;;
28766;SDS011;15921;52.034;20.650;2022-11-04T00:30:57;31.95;;;13.18;;
28766;SDS011;15921;52.034;20.650;2022-11-04T00:33:44;27.40;;;12.65;;
28766;SDS011;15921;52.034;20.650;2022-11-04T00:36:10;34.70;;;13.55;;
28766;SDS011;15921;52.034;20.650;2022-11-04T00:38:36;30.42;;;13.73;;
28766;SDS011;15921;52.034;20.650;2022-11-04T00:41:02;36.83;;;14.98;;
28766;SDS011;15921;52.034;20.650;2022-11-04T00:43:47;32.53;;;13.70;;
28766;SDS011;15921;52.034;20.650;2022-11-04T00:46:13;32.95;;;14.85;;
28766;SDS011;15921;52.034;20.650;2022-11-04T00:48:39;30.92;;;13.93;;
28766;SDS011;15921;52.034;20.650;2022-11-04T00:51:04;37.08;;;15.20;;
28766;SDS011;15921;52.034;20.650;2022-11-04T00:53:30;31.88;;;14.85;;
28766;SDS011;15921;52.034;20.650;2022-11-04T00:55:58;33.15;;;14.70;;
28766;SDS011;15921;52.034;20.650;2022-11-04T00:58:24;38.75;;;15.18;;
28766;SDS011;15921;52.034;20.650;2022-11-04T01:00:49;30.73;;;13.80;;
28766;SDS011;15921;52.034;20.650;2022-11-04T01:03:15;33.85;;;14.93;;
28766;SDS011;15921;52.034;20.650;2022-11-04T01:05:41;34.92;;;14.27;;
28766;SDS011;15921;52.034;20.650;2022-11-04T01:08:06;31.65;;;15.05;;
28766;SDS011;15921;52.034;20.650;2022-11-04T01:10:33;35.88;;;14.32;;
28766;SDS011;15921;52.034;20.650;2022-11-04T01:13:00;37.10;;;14.70;;
28766;SDS011;15921;52.034;20.650;2022-11-04T01:15:26;33.85;;;13.45;;
28766;SDS011;15921;52.034;20.650;2022-11-04T01:17:52;35.45;;;14.57;;
28766;SDS011;15921;52.034;20.650;2022-11-04T01:20:17;29.23;;;14.13;;
28766;SDS011;15921;52.034;20.650;2022-11-04T01:22:43;32.28;;;14.55;;
28766;SDS011;15921;52.034;20.650;2022-11-04T01:25:09;36.45;;;14.15;;
28766;SDS011;15921;52.034;20.650;2022-11-04T01:27:34;32.60;;;13.15;;
28766;SDS011;15921;52.034;20.650;2022-11-04T01:30:00;33.03;;;14.05;;
28766;SDS011;15921;52.034;20.650;2022-11-04T01:32:26;29.67;;;14.02;;
28766;SDS011;15921;52.034;20.650;2022-11-04T01:34:52;38.42;;;14.15;;
28766;SDS011;15921;52.034;20.650;2022-11-04T01:37:18;31.33;;;13.35;;
28766;SDS011;15921;52.034;20.650;2022-11-04T01:39:43;33.22;;;15.18;;
28766;SDS011;15921;52.034;20.650;2022-11-04T01:42:11;36.95;;;15.10;;
28766;SDS011;15921;52.034;20.650;2022-11-04T01:44:46;35.58;;;15.05;;
28766;SDS011;15921;52.034;20.650;2022-11-04T01:47:18;35.30;;;14.95;;
28766;SDS011;15921;52.034;20.650;2022-11-04T01:49:49;31.23;;;13.95;;
28766;SDS011;15921;52.034;20.650;2022-11-04T01:52:42;36.33;;;15.57;;
28766;SDS011;15921;52.034;20.650;2022-11-04T01:55:15;38.70;;;16.02;;
28766;SDS011;15921;52.034;20.650;2022-11-04T01:57:55;39.83;;;14.40;;
28766;SDS011;15921;52.034;20.650;2022-11-04T02:00:25;36.10;;;15.35;;
28766;SDS011;15921;52.034;20.650;2022-11-04T02:03:07;33.63;;;14.32;;
28766;SDS011;15921;52.034;20.650;2022-11-04T02:05:36;33.47;;;15.85;;
28766;SDS011;15921;52.034;20.650;2022-11-04T02:08:03;38.90;;;15.50;;
28766;SDS011;15921;52.034;20.650;2022-11-04T02:10:31;39.42;;;16.17;;
28766;SDS011;15921;52.034;20.650;2022-11-04T02:12:58;37.33;;;16.13;;
28766;SDS011;15921;52.034;20.650;2022-11-04T02:15:37;38.65;;;17.27;;
28766;SDS011;15921;52.034;20.650;2022-11-04T02:32:38;36.97;;;15.68;;
28766;SDS011;15921;52.034;20.650;2022-11-04T02:35:23;30.55;;;14.00;;
28766;SDS011;15921;52.034;20.650;2022-11-04T02:46:29;32.53;;;14.98;;
28766;SDS011;15921;52.034;20.650;2022-11-04T02:51:36;30.83;;;13.80;;
28766;SDS011;15921;52.034;20.650;2022-11-04T02:54:09;31.27;;;14.55;;
28766;SDS011;15921;52.034;20.650;2022-11-04T02:56:42;34.35;;;13.60;;
28766;SDS011;15921;52.034;20.650;2022-11-04T03:01:52;34.55;;;13.63;;
28766;SDS011;15921;52.034;20.650;2022-11-04T03:04:21;27.13;;;12.80;;
28766;SDS011;15921;52.034;20.650;2022-11-04T03:06:53;33.33;;;14.90;;
28766;SDS011;15921;52.034;20.650;2022-11-04T03:09:20;29.48;;;14.10;;
28766;SDS011;15921;52.034;20.650;2022-11-04T03:11:49;29.08;;;14.18;;
28766;SDS011;15921;52.034;20.650;2022-11-04T03:14:21;29.88;;;12.70;;
28766;SDS011;15921;52.034;20.650;2022-11-04T03:16:56;29.30;;;13.02;;
28766;SDS011;15921;52.034;20.650;2022-11-04T03:19:29;31.42;;;14.02;;
28766;SDS011;15921;52.034;20.650;2022-11-04T03:22:04;32.90;;;13.32;;
28766;SDS011;15921;52.034;20.650;2022-11-04T03:24:34;31.65;;;13.07;;
28766;SDS011;15921;52.034;20.650;2022-11-04T03:30:17;29.17;;;13.52;;
28766;SDS011;15921;52.034;20.650;2022-11-04T03:34:45;30.98;;;13.52;;
28766;SDS011;15921;52.034;20.650;2022-11-04T03:37:11;25.17;;;11.90;;
28766;SDS011;15921;52.034;20.650;2022-11-04T03:39:37;32.15;;;12.93;;
28766;SDS011;15921;52.034;20.650;2022-11-04T03:42:05;32.20;;;12.52;;
28766;SDS011;15921;52.034;20.650;2022-11-04T03:45:17;34.35;;;13.05;;
28766;SDS011;15921;52.034;20.650;2022-11-04T03:47:36;28.02;;;12.20;;
28766;SDS011;15921;52.034;20.650;2022-11-04T03:50:13;29.60;;;12.38;;
28766;SDS011;15921;52.034;20.650;2022-11-04T03:52:52;29.20;;;11.70;;
28766;SDS011;15921;52.034;20.650;2022-11-04T03:55:18;24.40;;;11.57;;
28766;SDS011;15921;52.034;20.650;2022-11-04T03:57:55;25.00;;;11.93;;
28766;SDS011;15921;52.034;20.650;2022-11-04T04:00:28;23.65;;;11.85;;
28766;SDS011;15921;52.034;20.650;2022-11-04T04:06:08;26.10;;;11.80;;
28766;SDS011;15921;52.034;20.650;2022-11-04T04:08:33;28.27;;;11.98;;
28766;SDS011;15921;52.034;20.650;2022-11-04T04:14:06;28.75;;;11.52;;
28766;SDS011;15921;52.034;20.650;2022-11-04T04:17:01;26.95;;;11.13;;
28766;SDS011;15921;52.034;20.650;2022-11-04T04:19:30;30.45;;;11.85;;
28766;SDS011;15921;52.034;20.650;2022-11-04T04:21:59;26.42;;;10.88;;
28766;SDS011;15921;52.034;20.650;2022-11-04T04:24:31;25.90;;;11.38;;
28766;SDS011;15921;52.034;20.650;2022-11-04T04:27:18;24.52;;;11.38;;
28766;SDS011;15921;52.034;20.650;2022-11-04T04:29:58;25.30;;;10.85;;
28766;SDS011;15921;52.034;20.650;2022-11-04T04:32:33;24.92;;;11.25;;
28766;SDS011;15921;52.034;20.650;2022-11-04T04:35:08;27.83;;;12.00;;
28766;SDS011;15921;52.034;20.650;2022-11-04T04:37:53;24.35;;;11.43;;
28766;SDS011;15921;52.034;20.650;2022-11-04T04:40:43;21.42;;;10.43;;
28766;SDS011;15921;52.034;20.650;2022-11-04T04:43:34;25.48;;;11.23;;
28766;SDS011;15921;52.034;20.650;2022-11-04T04:46:21;29.35;;;10.80;;
28766;SDS011;15921;52.034;20.650;2022-11-04T04:48:47;30.88;;;12.20;;
28766;SDS011;15921;52.034;20.650;2022-11-04T04:51:13;21.33;;;10.95;;
28766;SDS011;15921;52.034;20.650;2022-11-04T04:53:39;22.08;;;9.90;;
28766;SDS011;15921;52.034;20.650;2022-11-04T04:56:05;25.20;;;10.10;;
28766;SDS011;15921;52.034;20.650;2022-11-04T04:58:31;22.25;;;10.25;;
28766;SDS011;15921;52.034;20.650;2022-11-04T05:00:56;30.52;;;10.35;;
28766;SDS011;15921;52.034;20.650;2022-11-04T05:03:23;20.80;;;9.82;;
28766;SDS011;15921;52.034;20.650;2022-11-04T05:05:49;24.80;;;10.65;;
28766;SDS011;15921;52.034;20.650;2022-11-04T05:08:14;19.77;;;9.52;;
28766;SDS011;15921;52.034;20.650;2022-11-04T05:10:40;22.88;;;10.40;;
28766;SDS011;15921;52.034;20.650;2022-11-04T05:13:06;21.95;;;10.70;;
28766;SDS011;15921;52.034;20.650;2022-11-04T05:15:50;27.35;;;12.00;;
28766;SDS011;15921;52.034;20.650;2022-11-04T05:18:16;23.02;;;11.68;;
28766;SDS011;15921;52.034;20.650;2022-11-04T05:20:41;31.83;;;12.02;;
28766;SDS011;15921;52.034;20.650;2022-11-04T05:23:07;26.95;;;11.52;;
28766;SDS011;15921;52.034;20.650;2022-11-04T05:25:36;28.00;;;11.65;;
28766;SDS011;15921;52.034;20.650;2022-11-04T05:28:04;22.67;;;10.65;;
28766;SDS011;15921;52.034;20.650;2022-11-04T05:30:30;26.52;;;11.20;;
28766;SDS011;15921;52.034;20.650;2022-11-04T05:32:56;21.83;;;10.88;;
28766;SDS011;15921;52.034;20.650;2022-11-04T05:35:22;24.10;;;10.90;;
28766;SDS011;15921;52.034;20.650;2022-11-04T05:37:48;27.45;;;11.95;;
28766;SDS011;15921;52.034;20.650;2022-11-04T05:40:14;30.75;;;12.82;;
28766;SDS011;15921;52.034;20.650;2022-11-04T05:42:40;22.25;;;11.63;;
28766;SDS011;15921;52.034;20.650;2022-11-04T05:45:06;28.75;;;12.82;;
28766;SDS011;15921;52.034;20.650;2022-11-04T05:47:32;31.80;;;13.40;;
28766;SDS011;15921;52.034;20.650;2022-11-04T05:49:57;31.10;;;14.02;;
28766;SDS011;15921;52.034;20.650;2022-11-04T05:52:23;30.65;;;14.35;;
28766;SDS011;15921;52.034;20.650;2022-11-04T05:54:49;26.38;;;13.40;;
28766;SDS011;15921;52.034;20.650;2022-11-04T05:57:14;26.98;;;13.75;;
28766;SDS011;15921;52.034;20.650;2022-11-04T05:59:40;37.88;;;14.77;;
28766;SDS011;15921;52.034;20.650;2022-11-04T06:02:06;32.78;;;15.00;;
28766;SDS011;15921;52.034;20.650;2022-11-04T06:04:32;30.42;;;13.50;;
28766;SDS011;15921;52.034;20.650;2022-11-04T06:06:58;30.50;;;14.75;;
28766;SDS011;15921;52.034;20.650;2022-11-04T06:09:23;35.17;;;14.38;;
28766;SDS011;15921;52.034;20.650;2022-11-04T06:12:12;27.73;;;14.35;;
28766;SDS011;15921;52.034;20.650;2022-11-04T06:14:39;28.83;;;13.48;;
28766;SDS011;15921;52.034;20.650;2022-11-04T06:17:05;30.85;;;13.77;;
28766;SDS011;15921;52.034;20.650;2022-11-04T06:19:31;25.48;;;13.48;;
28766;SDS011;15921;52.034;20.650;2022-11-04T06:21:58;27.30;;;12.32;;
28766;SDS011;15921;52.034;20.650;2022-11-04T06:24:24;25.38;;;11.88;;
28766;SDS011;15921;52.034;20.650;2022-11-04T06:26:50;28.08;;;13.50;;
28766;SDS011;15921;52.034;20.650;2022-11-04T06:29:15;32.20;;;13.60;;
28766;SDS011;15921;52.034;20.650;2022-11-04T06:31:41;27.30;;;12.75;;
28766;SDS011;15921;52.034;20.650;2022-11-04T06:34:07;22.92;;;11.90;;
28766;SDS011;15921;52.034;20.650;2022-11-04T06:36:33;23.33;;;12.10;;
28766;SDS011;15921;52.034;20.650;2022-11-04T06:38:58;26.77;;;11.98;;
28766;SDS011;15921;52.034;20.650;2022-11-04T06:41:24;26.42;;;11.68;;
28766;SDS011;15921;52.034;20.650;2022-11-04T06:43:50;23.23;;;11.80;;
28766;SDS011;15921;52.034;20.650;2022-11-04T06:49:04;27.00;;;10.98;;
28766;SDS011;15921;52.034;20.650;2022-11-04T06:51:31;24.00;;;11.35;;
28766;SDS011;15921;52.034;20.650;2022-11-04T06:53:57;26.70;;;11.10;;
28766;SDS011;15921;52.034;20.650;2022-11-04T06:56:23;23.90;;;10.48;;
28766;SDS011;15921;52.034;20.650;2022-11-04T06:58:50;19.80;;;11.05;;
28766;SDS011;15921;52.034;20.650;2022-11-04T07:01:17;23.05;;;10.93;;
28766;SDS011;15921;52.034;20.650;2022-11-04T07:03:47;24.40;;;11.55;;
28766;SDS011;15921;52.034;20.650;2022-11-04T07:06:17;27.02;;;10.50;;
28766;SDS011;15921;52.034;20.650;2022-11-04T07:08:44;22.30;;;9.95;;
28766;SDS011;15921;52.034;20.650;2022-11-04T07:11:10;21.27;;;10.65;;
28766;SDS011;15921;52.034;20.650;2022-11-04T07:13:36;21.83;;;10.32;;
28766;SDS011;15921;52.034;20.650;2022-11-04T07:16:05;28.45;;;11.32;;
28766;SDS011;15921;52.034;20.650;2022-11-04T07:18:31;22.70;;;11.50;;
28766;SDS011;15921;52.034;20.650;2022-11-04T07:20:57;19.50;;;10.23;;
28766;SDS011;15921;52.034;20.650;2022-11-04T07:23:23;21.35;;;10.60;;
28766;SDS011;15921;52.034;20.650;2022-11-04T07:25:49;26.33;;;11.10;;
28766;SDS011;15921;52.034;20.650;2022-11-04T07:28:15;30.23;;;11.20;;
28766;SDS011;15921;52.034;20.650;2022-11-04T07:30:41;22.23;;;10.93;;
28766;SDS011;15921;52.034;20.650;2022-11-04T07:33:07;27.10;;;10.88;;
28766;SDS011;15921;52.034;20.650;2022-11-04T07:35:33;20.10;;;10.68;;
28766;SDS011;15921;52.034;20.650;2022-11-04T07:37:59;20.52;;;10.48;;
28766;SDS011;15921;52.034;20.650;2022-11-04T07:40:27;24.15;;;11.27;;
28766;SDS011;15921;52.034;20.650;2022-11-04T07:42:53;19.10;;;9.68;;
28766;SDS011;15921;52.034;20.650;2022-11-04T07:45:19;21.70;;;9.75;;
28766;SDS011;15921;52.034;20.650;2022-11-04T07:47:45;26.75;;;10.38;;
28766;SDS011;15921;52.034;20.650;2022-11-04T07:50:11;23.70;;;11.45;;
28766;SDS011;15921;52.034;20.650;2022-11-04T07:52:37;25.15;;;10.63;;
28766;SDS011;15921;52.034;20.650;2022-11-04T07:55:03;25.15;;;11.05;;
28766;SDS011;15921;52.034;20.650;2022-11-04T07:57:30;21.02;;;10.13;;
28766;SDS011;15921;52.034;20.650;2022-11-04T07:59:55;21.15;;;11.15;;
28766;SDS011;15921;52.034;20.650;2022-11-04T08:02:21;23.77;;;10.88;;
28766;SDS011;15921;52.034;20.650;2022-11-04T08:04:47;22.88;;;10.23;;
28766;SDS011;15921;52.034;20.650;2022-11-04T08:07:13;20.52;;;10.95;;
28766;SDS011;15921;52.034;20.650;2022-11-04T08:09:38;24.27;;;11.23;;
28766;SDS011;15921;52.034;20.650;2022-11-04T08:12:04;23.20;;;10.88;;
28766;SDS011;15921;52.034;20.650;2022-11-04T08:14:30;27.15;;;10.95;;
28766;SDS011;15921;52.034;20.650;2022-11-04T08:16:56;25.13;;;11.25;;
28766;SDS011;15921;52.034;20.650;2022-11-04T08:19:22;26.13;;;11.75;;
28766;SDS011;15921;52.034;20.650;2022-11-04T08:21:47;20.35;;;10.27;;
28766;SDS011;15921;52.034;20.650;2022-11-04T08:24:13;22.58;;;11.25;;
28766;SDS011;15921;52.034;20.650;2022-11-04T08:26:39;21.13;;;10.95;;
28766;SDS011;15921;52.034;20.650;2022-11-04T08:29:05;19.60;;;10.48;;
28766;SDS011;15921;52.034;20.650;2022-11-04T08:31:32;17.85;;;9.05;;
28766;SDS011;15921;52.034;20.650;2022-11-04T08:33:59;19.35;;;9.93;;
28766;SDS011;15921;52.034;20.650;2022-11-04T08:36:26;22.38;;;10.25;;
28766;SDS011;15921;52.034;20.650;2022-11-04T08:38:57;20.35;;;10.70;;
28766;SDS011;15921;52.034;20.650;2022-11-04T08:41:24;23.02;;;11.00;;
28766;SDS011;15921;52.034;20.650;2022-11-04T08:43:53;24.55;;;10.73;;
28766;SDS011;15921;52.034;20.650;2022-11-04T08:46:20;21.58;;;11.13;;
28766;SDS011;15921;52.034;20.650;2022-11-04T08:48:46;24.35;;;10.90;;
28766;SDS011;15921;52.034;20.650;2022-11-04T08:51:21;21.45;;;10.20;;
28766;SDS011;15921;52.034;20.650;2022-11-04T08:53:48;19.05;;;10.25;;
28766;SDS011;15921;52.034;20.650;2022-11-04T08:56:20;23.52;;;10.85;;
28766;SDS011;15921;52.034;20.650;2022-11-04T08:58:48;22.33;;;10.60;;
28766;SDS011;15921;52.034;20.650;2022-11-04T09:01:14;24.65;;;11.13;;
28766;SDS011;15921;52.034;20.650;2022-11-04T09:03:40;22.38;;;10.65;;
28766;SDS011;15921;52.034;20.650;2022-11-04T09:06:08;21.30;;;10.93;;
28766;SDS011;15921;52.034;20.650;2022-11-04T09:08:36;24.58;;;10.55;;
28766;SDS011;15921;52.034;20.650;2022-11-04T09:11:06;20.77;;;9.88;;
28766;SDS011;15921;52.034;20.650;2022-11-04T09:13:34;21.02;;;10.20;;
28766;SDS011;15921;52.034;20.650;2022-11-04T09:16:00;21.33;;;11.18;;
28766;SDS011;15921;52.034;20.650;2022-11-04T09:18:25;20.88;;;9.75;;
28766;SDS011;15921;52.034;20.650;2022-11-04T09:20:51;22.35;;;9.98;;
28766;SDS011;15921;52.034;20.650;2022-11-04T09:23:17;21.98;;;10.30;;
28766;SDS011;15921;52.034;20.650;2022-11-04T09:25:42;19.55;;;10.35;;
28766;SDS011;15921;52.034;20.650;2022-11-04T09:28:08;21.60;;;10.50;;
28766;SDS011;15921;52.034;20.650;2022-11-04T09:30:35;22.48;;;9.80;;
28766;SDS011;15921;52.034;20.650;2022-11-04T09:33:01;20.30;;;11.40;;
28766;SDS011;15921;52.034;20.650;2022-11-04T09:35:27;23.30;;;11.10;;
28766;SDS011;15921;52.034;20.650;2022-11-04T09:37:53;21.83;;;9.88;;
28766;SDS011;15921;52.034;20.650;2022-11-04T09:40:20;21.20;;;10.90;;
28766;SDS011;15921;52.034;20.650;2022-11-04T09:45:40;22.15;;;10.57;;
28766;SDS011;15921;52.034;20.650;2022-11-04T09:48:09;23.98;;;11.05;;
28766;SDS011;15921;52.034;20.650;2022-11-04T09:50:47;22.88;;;11.00;;
28766;SDS011;15921;52.034;20.650;2022-11-04T09:53:18;21.75;;;10.57;;
28766;SDS011;15921;52.034;20.650;2022-11-04T09:58:21;24.63;;;10.95;;
28766;SDS011;15921;52.034;20.650;2022-11-04T10:00:55;22.50;;;10.77;;
28766;SDS011;15921;52.034;20.650;2022-11-04T10:08:41;26.05;;;10.82;;
28766;SDS011;15921;52.034;20.650;2022-11-04T10:27:32;21.45;;;11.30;;
28766;SDS011;15921;52.034;20.650;2022-11-04T10:30:20;24.92;;;10.90;;
28766;SDS011;15921;52.034;20.650;2022-11-04T10:38:38;24.80;;;10.65;;
28766;SDS011;15921;52.034;20.650;2022-11-04T10:41:32;22.00;;;11.05;;
28766;SDS011;15921;52.034;20.650;2022-11-04T10:44:03;19.83;;;9.93;;
28766;SDS011;15921;52.034;20.650;2022-11-04T10:51:43;21.67;;;10.70;;
28766;SDS011;15921;52.034;20.650;2022-11-04T10:54:09;21.00;;;10.45;;
28766;SDS011;15921;52.034;20.650;2022-11-04T10:56:39;26.88;;;11.13;;
28766;SDS011;15921;52.034;20.650;2022-11-04T10:59:14;23.50;;;10.85;;
28766;SDS011;15921;52.034;20.650;2022-11-04T11:01:49;19.98;;;10.32;;
28766;SDS011;15921;52.034;20.650;2022-11-04T11:04:35;19.77;;;10.30;;
28766;SDS011;15921;52.034;20.650;2022-11-04T11:07:04;23.98;;;10.07;;
28766;SDS011;15921;52.034;20.650;2022-11-04T11:20:02;22.90;;;10.85;;
28766;SDS011;15921;52.034;20.650;2022-11-04T11:22:48;19.67;;;10.40;;
28766;SDS011;15921;52.034;20.650;2022-11-04T11:28:21;21.88;;;10.25;;
28766;SDS011;15921;52.034;20.650;2022-11-04T11:35:55;18.63;;;9.70;;
28766;SDS011;15921;52.034;20.650;2022-11-04T11:38:29;17.60;;;8.85;;
28766;SDS011;15921;52.034;20.650;2022-11-04T11:41:10;15.50;;;8.65;;
28766;SDS011;15921;52.034;20.650;2022-11-04T11:43:48;18.67;;;9.73;;
28766;SDS011;15921;52.034;20.650;2022-11-04T11:46:37;21.65;;;9.20;;
28766;SDS011;15921;52.034;20.650;2022-11-04T11:49:02;24.02;;;9.75;;
28766;SDS011;15921;52.034;20.650;2022-11-04T11:56:40;20.77;;;9.20;;
28766;SDS011;15921;52.034;20.650;2022-11-04T11:59:22;19.50;;;9.45;;
28766;SDS011;15921;52.034;20.650;2022-11-04T12:02:27;18.67;;;8.75;;
28766;SDS011;15921;52.034;20.650;2022-11-04T12:05:00;16.27;;;8.52;;
28766;SDS011;15921;52.034;20.650;2022-11-04T12:07:35;23.77;;;9.25;;
28766;SDS011;15921;52.034;20.650;2022-11-04T12:10:25;15.18;;;8.93;;
28766;SDS011;15921;52.034;20.650;2022-11-04T12:21:39;21.92;;;9.00;;
28766;SDS011;15921;52.034;20.650;2022-11-04T12:32:23;21.02;;;9.38;;
28766;SDS011;15921;52.034;20.650;2022-11-04T12:37:52;19.05;;;8.60;;
28766;SDS011;15921;52.034;20.650;2022-11-04T12:43:27;18.88;;;8.65;;
28766;SDS011;15921;52.034;20.650;2022-11-04T13:02:27;23.30;;;9.98;;
28766;SDS011;15921;52.034;20.650;2022-11-04T13:05:14;22.73;;;9.55;;
28766;SDS011;15921;52.034;20.650;2022-11-04T13:10:53;19.33;;;9.90;;
28766;SDS011;15921;52.034;20.650;2022-11-04T13:13:27;18.38;;;9.98;;
28766;SDS011;15921;52.034;20.650;2022-11-04T13:15:58;26.57;;;12.00;;
28766;SDS011;15921;52.034;20.650;2022-11-04T13:18:29;22.25;;;10.32;;
28766;SDS011;15921;52.034;20.650;2022-11-04T13:21:15;21.33;;;9.23;;
28766;SDS011;15921;52.034;20.650;2022-11-04T13:23:54;18.67;;;10.02;;
28766;SDS011;15921;52.034;20.650;2022-11-04T13:26:30;21.67;;;10.48;;
28766;SDS011;15921;52.034;20.650;2022-11-04T13:28:58;23.00;;;11.13;;
28766;SDS011;15921;52.034;20.650;2022-11-04T13:34:22;19.40;;;9.80;;
28766;SDS011;15921;52.034;20.650;2022-11-04T13:37:08;21.00;;;10.38;;
28766;SDS011;15921;52.034;20.650;2022-11-04T13:40:02;25.90;;;10.65;;
28766;SDS011;15921;52.034;20.650;2022-11-04T13:45:46;28.20;;;11.30;;
28766;SDS011;15921;52.034;20.650;2022-11-04T13:51:05;27.48;;;10.38;;
28766;SDS011;15921;52.034;20.650;2022-11-04T13:53:40;22.17;;;10.90;;
28766;SDS011;15921;52.034;20.650;2022-11-04T13:56:27;22.70;;;10.57;;
28766;SDS011;15921;52.034;20.650;2022-11-04T13:59:06;21.90;;;11.50;;
28766;SDS011;15921;52.034;20.650;2022-11-04T14:04:39;20.75;;;11.70;;
28766;SDS011;15921;52.034;20.650;2022-11-04T14:07:07;23.25;;;11.82;;
28766;SDS011;15921;52.034;20.650;2022-11-04T14:14:39;23.50;;;13.32;;
28766;SDS011;15921;52.034;20.650;2022-11-04T14:27:49;31.63;;;14.38;;
28766;SDS011;15921;52.034;20.650;2022-11-04T14:30:27;25.33;;;12.45;;
28766;SDS011;15921;52.034;20.650;2022-11-04T14:33:00;26.83;;;14.18;;
28766;SDS011;15921;52.034;20.650;2022-11-04T14:35:28;28.05;;;13.40;;
28766;SDS011;15921;52.034;20.650;2022-11-04T14:37:55;33.97;;;14.73;;
28766;SDS011;15921;52.034;20.650;2022-11-04T14:40:26;28.13;;;13.40;;
28766;SDS011;15921;52.034;20.650;2022-11-04T14:43:18;30.50;;;14.43;;
28766;SDS011;15921;52.034;20.650;2022-11-04T14:45:59;29.92;;;14.10;;
28766;SDS011;15921;52.034;20.650;2022-11-04T14:48:26;29.23;;;14.80;;
28766;SDS011;15921;52.034;20.650;2022-11-04T14:50:53;33.08;;;15.40;;
28766;SDS011;15921;52.034;20.650;2022-11-04T14:53:30;33.70;;;15.20;;
28766;SDS011;15921;52.034;20.650;2022-11-04T14:58:50;31.80;;;15.07;;
28766;SDS011;15921;52.034;20.650;2022-11-04T15:01:23;27.20;;;14.02;;
28766;SDS011;15921;52.034;20.650;2022-11-04T15:03:50;34.92;;;15.73;;
28766;SDS011;15921;52.034;20.650;2022-11-04T15:06:25;29.05;;;14.00;;
28766;SDS011;15921;52.034;20.650;2022-11-04T15:08:53;34.13;;;14.40;;
28766;SDS011;15921;52.034;20.650;2022-11-04T15:11:21;27.85;;;13.88;;
28766;SDS011;15921;52.034;20.650;2022-11-04T15:14:21;30.50;;;12.98;;
28766;SDS011;15921;52.034;20.650;2022-11-04T15:16:57;20.95;;;11.63;;
28766;SDS011;15921;52.034;20.650;2022-11-04T15:19:28;26.30;;;13.13;;
28766;SDS011;15921;52.034;20.650;2022-11-04T15:21:56;29.08;;;13.63;;
28766;SDS011;15921;52.034;20.650;2022-11-04T15:24:27;26.70;;;11.98;;
28766;SDS011;15921;52.034;20.650;2022-11-04T15:26:54;25.27;;;13.00;;
28766;SDS011;15921;52.034;20.650;2022-11-04T15:29:25;27.98;;;12.60;;
28766;SDS011;15921;52.034;20.650;2022-11-04T15:31:57;24.95;;;12.25;;
28766;SDS011;15921;52.034;20.650;2022-11-04T15:34:27;29.02;;;14.10;;
28766;SDS011;15921;52.034;20.650;2022-11-04T15:36:55;26.00;;;11.70;;
28766;SDS011;15921;52.034;20.650;2022-11-04T15:41:57;25.83;;;11.83;;
28766;SDS011;15921;52.034;20.650;2022-11-04T15:44:44;24.75;;;12.23;;
28766;SDS011;15921;52.034;20.650;2022-11-04T15:49:43;29.15;;;13.02;;
28766;SDS011;15921;52.034;20.650;2022-11-04T15:52:20;30.27;;;14.52;;
28766;SDS011;15921;52.034;20.650;2022-11-04T15:54:49;35.22;;;15.63;;
28766;SDS011;15921;52.034;20.650;2022-11-04T15:57:20;27.83;;;14.95;;
28766;SDS011;15921;52.034;20.650;2022-11-04T16:02:50;27.10;;;13.68;;
28766;SDS011;15921;52.034;20.650;2022-11-04T16:05:32;31.38;;;12.43;;
28766;SDS011;15921;52.034;20.650;2022-11-04T16:08:20;25.92;;;13.10;;
28766;SDS011;15921;52.034;20.650;2022-11-04T16:10:47;26.08;;;12.75;;
28766;SDS011;15921;52.034;20.650;2022-11-04T16:13:31;27.73;;;12.25;;
28766;SDS011;15921;52.034;20.650;2022-11-04T16:20:54;28.13;;;13.80;;
28766;SDS011;15921;52.034;20.650;2022-11-04T16:23:22;28.63;;;13.38;;
28766;SDS011;15921;52.034;20.650;2022-11-04T16:26:00;27.30;;;13.95;;
28766;SDS011;15921;52.034;20.650;2022-11-04T16:28:30;29.13;;;13.98;;
28766;SDS011;15921;52.034;20.650;2022-11-04T16:31:02;34.50;;;14.07;;
28766;SDS011;15921;52.034;20.650;2022-11-04T16:33:30;29.13;;;13.55;;
28766;SDS011;15921;52.034;20.650;2022-11-04T16:35:56;28.35;;;12.95;;
28766;SDS011;15921;52.034;20.650;2022-11-04T16:38:22;29.55;;;14.88;;
28766;SDS011;15921;52.034;20.650;2022-11-04T16:40:48;27.83;;;13.05;;
28766;SDS011;15921;52.034;20.650;2022-11-04T16:43:16;36.30;;;14.95;;
28766;SDS011;15921;52.034;20.650;2022-11-04T16:45:44;32.95;;;13.10;;
28766;SDS011;15921;52.034;20.650;2022-11-04T16:48:15;31.30;;;15.13;;
28766;SDS011;15921;52.034;20.650;2022-11-04T16:50:42;31.23;;;13.57;;
28766;SDS011;15921;52.034;20.650;2022-11-04T16:53:09;35.67;;;14.82;;
28766;SDS011;15921;52.034;20.650;2022-11-04T16:55:34;25.48;;;13.43;;
28766;SDS011;15921;52.034;20.650;2022-11-04T16:58:04;34.08;;;14.15;;
28766;SDS011;15921;52.034;20.650;2022-11-04T17:00:31;29.40;;;12.77;;
28766;SDS011;15921;52.034;20.650;2022-11-04T17:03:00;35.03;;;14.48;;
28766;SDS011;15921;52.034;20.650;2022-11-04T17:05:36;30.15;;;14.18;;
28766;SDS011;15921;52.034;20.650;2022-11-04T17:08:02;29.52;;;14.07;;
28766;SDS011;15921;52.034;20.650;2022-11-04T17:10:28;30.42;;;12.70;;
28766;SDS011;15921;52.034;20.650;2022-11-04T17:12:54;26.05;;;13.68;;
28766;SDS011;15921;52.034;20.650;2022-11-04T17:15:19;30.65;;;13.73;;
28766;SDS011;15921;52.034;20.650;2022-11-04T17:17:46;30.50;;;13.93;;
28766;SDS011;15921;52.034;20.650;2022-11-04T17:20:13;31.98;;;14.63;;
28766;SDS011;15921;52.034;20.650;2022-11-04T17:22:41;26.63;;;14.68;;
28766;SDS011;15921;52.034;20.650;2022-11-04T17:25:15;35.78;;;14.63;;
28766;SDS011;15921;52.034;20.650;2022-11-04T17:27:46;29.10;;;15.60;;
28766;SDS011;15921;52.034;20.650;2022-11-04T17:30:13;33.42;;;15.38;;
28766;SDS011;15921;52.034;20.650;2022-11-04T17:32:40;36.67;;;15.40;;
28766;SDS011;15921;52.034;20.650;2022-11-04T17:35:07;31.60;;;14.82;;
28766;SDS011;15921;52.034;20.650;2022-11-04T17:37:33;30.05;;;14.88;;
28766;SDS011;15921;52.034;20.650;2022-11-04T17:39:59;35.50;;;14.02;;
28766;SDS011;15921;52.034;20.650;2022-11-04T17:42:24;38.50;;;15.45;;